sensor_id;sensor_type;location;lat;lon;timestamp;temperature;humidity
70079;DHT22;57451;52.496;13.456;2022-08-14T00:02:05;24.60;53.80
70079;DHT22;57451;52.496;13.456;2022-08-14T00:04:31;24.60;54.20
70079;DHT22;57451;52.496;13.456;2022-08-14T00:06:58;24.60;54.50
70079;DHT22;57451;52.496;13.456;2022-08-14T00:09:24;24.60;53.50
70079;DHT22;57451;52.496;13.456;2022-08-14T00:11:50;24.60;53.20
70079;DHT22;57451;52.496;13.456;2022-08-14T00:14:17;24.50;52.80
70079;DHT22;57451;52.496;13.456;2022-08-14T00:16:43;24.50;53.80
70079;DHT22;57451;52.496;13.456;2022-08-14T00:19:11;24.50;53.20
70079;DHT22;57451;52.496;13.456;2022-08-14T00:21:37;24.40;54.00
70079;DHT22;57451;52.496;13.456;2022-08-14T00:24:04;24.40;53.90
70079;DHT22;57451;52.496;13.456;2022-08-14T00:26:30;24.30;54.00
70079;DHT22;57451;52.496;13.456;2022-08-14T00:28:57;24.30;55.20
70079;DHT22;57451;52.496;13.456;2022-08-14T00:31:23;24.30;55.20
70079;DHT22;57451;52.496;13.456;2022-08-14T00:33:49;24.30;54.30
70079;DHT22;57451;52.496;13.456;2022-08-14T00:36:17;24.20;53.60
70079;DHT22;57451;52.496;13.456;2022-08-14T00:38:43;24.20;55.00
70079;DHT22;57451;52.496;13.456;2022-08-14T00:41:09;24.20;54.10
70079;DHT22;57451;52.496;13.456;2022-08-14T00:43:36;24.10;56.30
70079;DHT22;57451;52.496;13.456;2022-08-14T00:46:03;24.10;55.10
70079;DHT22;57451;52.496;13.456;2022-08-14T00:48:30;24.10;55.80
70079;DHT22;57451;52.496;13.456;2022-08-14T00:50:56;24.00;56.30
70079;DHT22;57451;52.496;13.456;2022-08-14T00:53:24;24.00;55.10
70079;DHT22;57451;52.496;13.456;2022-08-14T00:55:51;24.00;56.40
70079;DHT22;57451;52.496;13.456;2022-08-14T00:58:20;24.00;56.10
70079;DHT22;57451;52.496;13.456;2022-08-14T01:00:56;23.90;57.60
70079;DHT22;57451;52.496;13.456;2022-08-14T01:03:24;23.90;58.00
70079;DHT22;57451;52.496;13.456;2022-08-14T01:05:51;23.80;58.10
70079;DHT22;57451;52.496;13.456;2022-08-14T01:08:19;23.70;58.40
70079;DHT22;57451;52.496;13.456;2022-08-14T01:10:48;23.70;58.20
70079;DHT22;57451;52.496;13.456;2022-08-14T01:13:20;23.70;57.40
70079;DHT22;57451;52.496;13.456;2022-08-14T01:15:48;23.70;57.50
70079;DHT22;57451;52.496;13.456;2022-08-14T01:18:15;23.70;57.60
70079;DHT22;57451;52.496;13.456;2022-08-14T01:21:00;23.60;57.90
70079;DHT22;57451;52.496;13.456;2022-08-14T01:23:34;23.60;57.40
70079;DHT22;57451;52.496;13.456;2022-08-14T01:26:00;23.60;57.70
70079;DHT22;57451;52.496;13.456;2022-08-14T01:28:26;23.60;57.50
70079;DHT22;57451;52.496;13.456;2022-08-14T01:30:56;23.60;57.30
70079;DHT22;57451;52.496;13.456;2022-08-14T01:33:23;23.50;57.40
70079;DHT22;57451;52.496;13.456;2022-08-14T01:35:54;23.50;58.40
70079;DHT22;57451;52.496;13.456;2022-08-14T01:38:23;23.50;58.50
70079;DHT22;57451;52.496;13.456;2022-08-14T01:40:51;23.50;58.60
70079;DHT22;57451;52.496;13.456;2022-08-14T01:43:17;23.50;58.60
70079;DHT22;57451;52.496;13.456;2022-08-14T01:45:44;23.50;58.70
70079;DHT22;57451;52.496;13.456;2022-08-14T01:48:11;23.50;57.40
70079;DHT22;57451;52.496;13.456;2022-08-14T01:50:38;23.50;59.10
70079;DHT22;57451;52.496;13.456;2022-08-14T01:53:05;23.40;58.80
70079;DHT22;57451;52.496;13.456;2022-08-14T01:55:33;23.40;58.10
70079;DHT22;57451;52.496;13.456;2022-08-14T01:58:01;23.50;58.10
70079;DHT22;57451;52.496;13.456;2022-08-14T02:00:28;23.40;57.30
70079;DHT22;57451;52.496;13.456;2022-08-14T02:02:55;23.40;57.60
70079;DHT22;57451;52.496;13.456;2022-08-14T02:05:24;23.40;58.70
70079;DHT22;57451;52.496;13.456;2022-08-14T02:07:54;23.40;57.60
70079;DHT22;57451;52.496;13.456;2022-08-14T02:10:21;23.40;57.60
70079;DHT22;57451;52.496;13.456;2022-08-14T02:12:47;23.40;57.60
70079;DHT22;57451;52.496;13.456;2022-08-14T02:15:15;23.40;56.50
70079;DHT22;57451;52.496;13.456;2022-08-14T02:17:47;23.40;56.40
70079;DHT22;57451;52.496;13.456;2022-08-14T02:20:13;23.40;56.60
70079;DHT22;57451;52.496;13.456;2022-08-14T02:22:39;23.40;56.30
70079;DHT22;57451;52.496;13.456;2022-08-14T02:25:06;23.40;56.80
70079;DHT22;57451;52.496;13.456;2022-08-14T02:27:33;23.40;59.10
70079;DHT22;57451;52.496;13.456;2022-08-14T02:29:59;23.40;56.90
70079;DHT22;57451;52.496;13.456;2022-08-14T02:32:26;23.40;56.90
70079;DHT22;57451;52.496;13.456;2022-08-14T02:34:53;23.40;57.80
70079;DHT22;57451;52.496;13.456;2022-08-14T02:37:19;23.30;58.30
70079;DHT22;57451;52.496;13.456;2022-08-14T02:39:45;23.30;58.30
70079;DHT22;57451;52.496;13.456;2022-08-14T02:42:15;23.30;57.10
70079;DHT22;57451;52.496;13.456;2022-08-14T02:44:43;23.30;58.90
70079;DHT22;57451;52.496;13.456;2022-08-14T02:47:10;23.30;59.00
70079;DHT22;57451;52.496;13.456;2022-08-14T02:49:37;23.30;57.10
70079;DHT22;57451;52.496;13.456;2022-08-14T02:52:04;23.30;58.80
70079;DHT22;57451;52.496;13.456;2022-08-14T02:54:32;23.30;57.20
70079;DHT22;57451;52.496;13.456;2022-08-14T02:56:59;23.30;59.00
70079;DHT22;57451;52.496;13.456;2022-08-14T02:59:27;23.30;58.40
70079;DHT22;57451;52.496;13.456;2022-08-14T03:01:54;23.30;57.30
70079;DHT22;57451;52.496;13.456;2022-08-14T03:04:22;23.30;57.10
70079;DHT22;57451;52.496;13.456;2022-08-14T03:06:50;23.30;58.60
70079;DHT22;57451;52.496;13.456;2022-08-14T03:09:16;23.30;59.60
70079;DHT22;57451;52.496;13.456;2022-08-14T03:11:42;23.30;58.40
70079;DHT22;57451;52.496;13.456;2022-08-14T03:14:09;23.30;57.00
70079;DHT22;57451;52.496;13.456;2022-08-14T03:16:38;23.30;58.70
70079;DHT22;57451;52.496;13.456;2022-08-14T03:19:06;23.30;59.90
70079;DHT22;57451;52.496;13.456;2022-08-14T03:21:33;23.20;60.10
70079;DHT22;57451;52.496;13.456;2022-08-14T03:24:01;23.20;60.10
70079;DHT22;57451;52.496;13.456;2022-08-14T03:26:40;23.20;60.40
70079;DHT22;57451;52.496;13.456;2022-08-14T03:29:09;23.20;58.60
70079;DHT22;57451;52.496;13.456;2022-08-14T03:31:37;23.20;59.20
70079;DHT22;57451;52.496;13.456;2022-08-14T03:34:05;23.20;60.30
70079;DHT22;57451;52.496;13.456;2022-08-14T03:36:33;23.20;58.00
70079;DHT22;57451;52.496;13.456;2022-08-14T03:39:03;23.20;59.70
70079;DHT22;57451;52.496;13.456;2022-08-14T03:41:30;23.10;59.60
70079;DHT22;57451;52.496;13.456;2022-08-14T03:43:58;23.10;58.60
70079;DHT22;57451;52.496;13.456;2022-08-14T03:46:25;23.10;58.90
70079;DHT22;57451;52.496;13.456;2022-08-14T03:48:53;23.10;60.20
70079;DHT22;57451;52.496;13.456;2022-08-14T03:51:20;23.10;60.50
70079;DHT22;57451;52.496;13.456;2022-08-14T03:53:47;23.10;61.20
70079;DHT22;57451;52.496;13.456;2022-08-14T03:56:16;23.00;61.90
70079;DHT22;57451;52.496;13.456;2022-08-14T03:58:45;23.00;60.00
70079;DHT22;57451;52.496;13.456;2022-08-14T04:01:12;23.00;60.80
70079;DHT22;57451;52.496;13.456;2022-08-14T04:03:38;23.00;59.40
70079;DHT22;57451;52.496;13.456;2022-08-14T04:06:05;23.00;59.80
70079;DHT22;57451;52.496;13.456;2022-08-14T04:08:34;23.00;59.10
70079;DHT22;57451;52.496;13.456;2022-08-14T04:11:01;23.00;59.70
70079;DHT22;57451;52.496;13.456;2022-08-14T04:13:29;23.00;61.10
70079;DHT22;57451;52.496;13.456;2022-08-14T04:15:55;23.00;60.80
70079;DHT22;57451;52.496;13.456;2022-08-14T04:18:22;23.00;59.40
70079;DHT22;57451;52.496;13.456;2022-08-14T04:20:48;23.00;60.30
70079;DHT22;57451;52.496;13.456;2022-08-14T04:23:14;23.00;59.20
70079;DHT22;57451;52.496;13.456;2022-08-14T04:25:42;23.00;60.30
70079;DHT22;57451;52.496;13.456;2022-08-14T04:28:09;23.00;59.00
70079;DHT22;57451;52.496;13.456;2022-08-14T04:30:38;23.00;60.90
70079;DHT22;57451;52.496;13.456;2022-08-14T04:33:05;23.00;60.10
70079;DHT22;57451;52.496;13.456;2022-08-14T04:35:35;23.00;58.70
70079;DHT22;57451;52.496;13.456;2022-08-14T04:38:05;23.00;58.50
70079;DHT22;57451;52.496;13.456;2022-08-14T04:40:50;23.00;60.60
70079;DHT22;57451;52.496;13.456;2022-08-14T04:43:36;23.00;59.20
70079;DHT22;57451;52.496;13.456;2022-08-14T04:46:05;23.00;59.40
70079;DHT22;57451;52.496;13.456;2022-08-14T04:48:32;23.00;60.40
70079;DHT22;57451;52.496;13.456;2022-08-14T04:50:59;23.00;59.80
70079;DHT22;57451;52.496;13.456;2022-08-14T04:53:27;23.00;59.30
70079;DHT22;57451;52.496;13.456;2022-08-14T04:55:56;23.00;59.40
70079;DHT22;57451;52.496;13.456;2022-08-14T04:58:26;23.00;59.80
70079;DHT22;57451;52.496;13.456;2022-08-14T05:00:54;23.00;60.10
70079;DHT22;57451;52.496;13.456;2022-08-14T05:03:23;23.00;59.40
70079;DHT22;57451;52.496;13.456;2022-08-14T05:05:51;23.00;59.20
70079;DHT22;57451;52.496;13.456;2022-08-14T05:08:18;23.10;59.50
70079;DHT22;57451;52.496;13.456;2022-08-14T05:10:47;23.10;58.60
70079;DHT22;57451;52.496;13.456;2022-08-14T05:13:15;23.10;59.30
70079;DHT22;57451;52.496;13.456;2022-08-14T05:15:42;23.10;58.70
70079;DHT22;57451;52.496;13.456;2022-08-14T05:18:11;23.20;58.70
70079;DHT22;57451;52.496;13.456;2022-08-14T05:20:40;23.20;59.30
70079;DHT22;57451;52.496;13.456;2022-08-14T05:23:09;23.20;58.30
70079;DHT22;57451;52.496;13.456;2022-08-14T05:25:35;23.20;59.50
70079;DHT22;57451;52.496;13.456;2022-08-14T05:28:07;23.30;57.70
70079;DHT22;57451;52.496;13.456;2022-08-14T05:30:34;23.30;57.50
70079;DHT22;57451;52.496;13.456;2022-08-14T05:33:01;23.30;56.50
70079;DHT22;57451;52.496;13.456;2022-08-14T05:35:27;23.40;56.50
70079;DHT22;57451;52.496;13.456;2022-08-14T05:37:54;23.40;56.70
70079;DHT22;57451;52.496;13.456;2022-08-14T05:40:21;23.40;57.90
70079;DHT22;57451;52.496;13.456;2022-08-14T05:42:47;23.50;56.60
70079;DHT22;57451;52.496;13.456;2022-08-14T05:45:13;23.50;56.90
70079;DHT22;57451;52.496;13.456;2022-08-14T05:47:42;23.60;58.50
70079;DHT22;57451;52.496;13.456;2022-08-14T05:50:10;23.70;58.50
70079;DHT22;57451;52.496;13.456;2022-08-14T05:52:37;23.70;57.90
70079;DHT22;57451;52.496;13.456;2022-08-14T05:55:06;23.80;58.90
70079;DHT22;57451;52.496;13.456;2022-08-14T05:57:33;23.80;58.50
70079;DHT22;57451;52.496;13.456;2022-08-14T05:59:59;23.90;59.40
70079;DHT22;57451;52.496;13.456;2022-08-14T06:02:25;24.00;58.80
70079;DHT22;57451;52.496;13.456;2022-08-14T06:04:52;24.10;56.90
70079;DHT22;57451;52.496;13.456;2022-08-14T06:07:18;24.10;57.80
70079;DHT22;57451;52.496;13.456;2022-08-14T06:09:44;24.20;57.20
70079;DHT22;57451;52.496;13.456;2022-08-14T06:12:11;24.30;56.80
70079;DHT22;57451;52.496;13.456;2022-08-14T06:14:38;24.40;57.10
70079;DHT22;57451;52.496;13.456;2022-08-14T06:17:04;24.40;58.00
70079;DHT22;57451;52.496;13.456;2022-08-14T06:19:30;24.50;58.00
70079;DHT22;57451;52.496;13.456;2022-08-14T06:21:56;24.60;56.80
70079;DHT22;57451;52.496;13.456;2022-08-14T06:24:23;24.60;57.60
70079;DHT22;57451;52.496;13.456;2022-08-14T06:26:49;24.70;57.70
70079;DHT22;57451;52.496;13.456;2022-08-14T06:29:17;24.80;57.00
70079;DHT22;57451;52.496;13.456;2022-08-14T06:31:43;24.80;56.80
70079;DHT22;57451;52.496;13.456;2022-08-14T06:34:09;24.90;56.60
70079;DHT22;57451;52.496;13.456;2022-08-14T06:36:35;25.00;56.60
70079;DHT22;57451;52.496;13.456;2022-08-14T06:39:03;25.10;56.20
70079;DHT22;57451;52.496;13.456;2022-08-14T06:41:29;25.10;56.50
70079;DHT22;57451;52.496;13.456;2022-08-14T06:43:57;25.20;56.10
70079;DHT22;57451;52.496;13.456;2022-08-14T06:46:27;25.30;56.70
70079;DHT22;57451;52.496;13.456;2022-08-14T06:48:53;25.30;55.90
70079;DHT22;57451;52.496;13.456;2022-08-14T06:51:19;25.40;56.40
70079;DHT22;57451;52.496;13.456;2022-08-14T06:53:45;25.40;56.10
70079;DHT22;57451;52.496;13.456;2022-08-14T06:56:12;25.40;56.20
70079;DHT22;57451;52.496;13.456;2022-08-14T06:58:38;25.40;56.00
70079;DHT22;57451;52.496;13.456;2022-08-14T07:01:04;25.50;55.90
70079;DHT22;57451;52.496;13.456;2022-08-14T07:03:50;25.60;55.60
70079;DHT22;57451;52.496;13.456;2022-08-14T07:06:35;25.60;55.70
70079;DHT22;57451;52.496;13.456;2022-08-14T07:09:02;25.70;55.10
70079;DHT22;57451;52.496;13.456;2022-08-14T07:11:29;25.70;54.90
70079;DHT22;57451;52.496;13.456;2022-08-14T07:13:56;25.80;54.80
70079;DHT22;57451;52.496;13.456;2022-08-14T07:16:22;25.80;54.60
70079;DHT22;57451;52.496;13.456;2022-08-14T07:18:48;25.80;54.80
70079;DHT22;57451;52.496;13.456;2022-08-14T07:21:16;25.90;53.60
70079;DHT22;57451;52.496;13.456;2022-08-14T07:23:42;25.90;54.70
70079;DHT22;57451;52.496;13.456;2022-08-14T07:26:08;26.00;54.00
70079;DHT22;57451;52.496;13.456;2022-08-14T07:28:37;26.10;54.10
70079;DHT22;57451;52.496;13.456;2022-08-14T07:31:05;26.20;54.60
70079;DHT22;57451;52.496;13.456;2022-08-14T07:33:34;26.20;52.80
70079;DHT22;57451;52.496;13.456;2022-08-14T07:36:04;26.30;53.60
70079;DHT22;57451;52.496;13.456;2022-08-14T07:38:32;26.40;53.60
70079;DHT22;57451;52.496;13.456;2022-08-14T07:40:58;26.50;53.30
70079;DHT22;57451;52.496;13.456;2022-08-14T07:43:25;26.50;53.10
70079;DHT22;57451;52.496;13.456;2022-08-14T07:45:51;26.50;53.50
70079;DHT22;57451;52.496;13.456;2022-08-14T07:48:17;26.60;54.00
70079;DHT22;57451;52.496;13.456;2022-08-14T07:50:45;26.70;53.10
70079;DHT22;57451;52.496;13.456;2022-08-14T07:53:12;26.80;52.70
70079;DHT22;57451;52.496;13.456;2022-08-14T07:55:41;26.80;51.90
70079;DHT22;57451;52.496;13.456;2022-08-14T07:58:08;26.90;51.60
70079;DHT22;57451;52.496;13.456;2022-08-14T08:00:34;27.00;51.10
70079;DHT22;57451;52.496;13.456;2022-08-14T08:03:01;27.00;51.70
70079;DHT22;57451;52.496;13.456;2022-08-14T08:05:28;27.10;51.70
70079;DHT22;57451;52.496;13.456;2022-08-14T08:07:55;27.20;51.60
70079;DHT22;57451;52.496;13.456;2022-08-14T08:10:23;27.20;52.50
70079;DHT22;57451;52.496;13.456;2022-08-14T08:13:01;27.30;51.50
70079;DHT22;57451;52.496;13.456;2022-08-14T08:15:29;27.40;51.30
70079;DHT22;57451;52.496;13.456;2022-08-14T08:17:58;27.40;51.30
70079;DHT22;57451;52.496;13.456;2022-08-14T08:20:26;27.50;50.10
70079;DHT22;57451;52.496;13.456;2022-08-14T08:22:54;27.60;50.20
70079;DHT22;57451;52.496;13.456;2022-08-14T08:25:25;27.60;50.60
70079;DHT22;57451;52.496;13.456;2022-08-14T08:27:57;27.70;50.20
70079;DHT22;57451;52.496;13.456;2022-08-14T08:30:27;27.80;50.00
70079;DHT22;57451;52.496;13.456;2022-08-14T08:32:54;27.90;50.10
70079;DHT22;57451;52.496;13.456;2022-08-14T08:35:23;27.90;49.20
70079;DHT22;57451;52.496;13.456;2022-08-14T08:37:52;28.00;49.40
70079;DHT22;57451;52.496;13.456;2022-08-14T08:40:25;28.10;48.40
70079;DHT22;57451;52.496;13.456;2022-08-14T08:42:52;28.20;48.60
70079;DHT22;57451;52.496;13.456;2022-08-14T08:47:57;28.30;48.30
70079;DHT22;57451;52.496;13.456;2022-08-14T08:50:26;28.30;48.70
70079;DHT22;57451;52.496;13.456;2022-08-14T08:52:57;28.30;48.40
70079;DHT22;57451;52.496;13.456;2022-08-14T08:55:25;28.40;48.20
70079;DHT22;57451;52.496;13.456;2022-08-14T08:57:56;28.50;48.10
70079;DHT22;57451;52.496;13.456;2022-08-14T09:00:23;28.60;48.00
70079;DHT22;57451;52.496;13.456;2022-08-14T09:02:59;28.60;47.70
70079;DHT22;57451;52.496;13.456;2022-08-14T09:05:29;28.60;48.00
70079;DHT22;57451;52.496;13.456;2022-08-14T09:08:12;28.70;47.50
70079;DHT22;57451;52.496;13.456;2022-08-14T09:10:39;28.80;46.70
70079;DHT22;57451;52.496;13.456;2022-08-14T09:13:05;28.80;47.50
70079;DHT22;57451;52.496;13.456;2022-08-14T09:15:31;28.90;47.10
70079;DHT22;57451;52.496;13.456;2022-08-14T09:17:59;29.00;46.70
70079;DHT22;57451;52.496;13.456;2022-08-14T09:20:26;29.10;46.70
70079;DHT22;57451;52.496;13.456;2022-08-14T09:22:53;29.20;45.70
70079;DHT22;57451;52.496;13.456;2022-08-14T09:25:19;29.20;45.30
70079;DHT22;57451;52.496;13.456;2022-08-14T09:27:45;29.30;45.70
70079;DHT22;57451;52.496;13.456;2022-08-14T09:30:12;29.40;46.00
70079;DHT22;57451;52.496;13.456;2022-08-14T09:32:45;29.40;45.90
70079;DHT22;57451;52.496;13.456;2022-08-14T09:35:19;29.50;45.70
70079;DHT22;57451;52.496;13.456;2022-08-14T09:37:54;29.60;44.60
70079;DHT22;57451;52.496;13.456;2022-08-14T09:40:36;29.70;44.90
70079;DHT22;57451;52.496;13.456;2022-08-14T09:43:13;29.70;44.20
70079;DHT22;57451;52.496;13.456;2022-08-14T09:45:44;29.80;44.90
70079;DHT22;57451;52.496;13.456;2022-08-14T09:48:16;29.90;44.70
70079;DHT22;57451;52.496;13.456;2022-08-14T09:50:48;29.90;43.80
70079;DHT22;57451;52.496;13.456;2022-08-14T09:53:17;30.00;45.20
70079;DHT22;57451;52.496;13.456;2022-08-14T09:55:43;30.00;44.50
70079;DHT22;57451;52.496;13.456;2022-08-14T09:58:12;30.10;44.30
70079;DHT22;57451;52.496;13.456;2022-08-14T10:00:43;30.30;43.70
70079;DHT22;57451;52.496;13.456;2022-08-14T10:03:10;30.40;43.80
70079;DHT22;57451;52.496;13.456;2022-08-14T10:05:37;30.50;43.40
70079;DHT22;57451;52.496;13.456;2022-08-14T10:08:15;30.60;42.50
70079;DHT22;57451;52.496;13.456;2022-08-14T10:10:42;30.70;41.20
70079;DHT22;57451;52.496;13.456;2022-08-14T10:13:20;30.80;41.50
70079;DHT22;57451;52.496;13.456;2022-08-14T10:15:48;30.80;41.20
70079;DHT22;57451;52.496;13.456;2022-08-14T10:18:18;30.90;42.10
70079;DHT22;57451;52.496;13.456;2022-08-14T10:20:53;30.90;40.80
70079;DHT22;57451;52.496;13.456;2022-08-14T10:23:25;31.00;41.70
70079;DHT22;57451;52.496;13.456;2022-08-14T10:25:56;31.00;41.30
70079;DHT22;57451;52.496;13.456;2022-08-14T10:28:22;31.10;40.70
70079;DHT22;57451;52.496;13.456;2022-08-14T10:30:49;31.10;40.90
70079;DHT22;57451;52.496;13.456;2022-08-14T10:33:58;31.20;40.90
70079;DHT22;57451;52.496;13.456;2022-08-14T10:36:32;31.30;40.70
70079;DHT22;57451;52.496;13.456;2022-08-14T10:39:02;31.40;39.20
70079;DHT22;57451;52.496;13.456;2022-08-14T10:41:40;31.50;39.60
70079;DHT22;57451;52.496;13.456;2022-08-14T10:44:09;31.60;39.70
70079;DHT22;57451;52.496;13.456;2022-08-14T10:46:40;31.60;40.10
70079;DHT22;57451;52.496;13.456;2022-08-14T10:49:16;31.70;39.90
70079;DHT22;57451;52.496;13.456;2022-08-14T10:51:57;31.80;39.60
70079;DHT22;57451;52.496;13.456;2022-08-14T10:54:34;31.80;39.00
70079;DHT22;57451;52.496;13.456;2022-08-14T10:57:12;31.90;37.90
70079;DHT22;57451;52.496;13.456;2022-08-14T10:59:46;31.90;38.90
70079;DHT22;57451;52.496;13.456;2022-08-14T11:02:20;31.90;38.90
70079;DHT22;57451;52.496;13.456;2022-08-14T11:05:00;32.00;39.00
70079;DHT22;57451;52.496;13.456;2022-08-14T11:07:28;32.00;39.70
70079;DHT22;57451;52.496;13.456;2022-08-14T11:09:59;32.10;38.70
70079;DHT22;57451;52.496;13.456;2022-08-14T11:12:38;32.20;39.20
70079;DHT22;57451;52.496;13.456;2022-08-14T11:15:06;32.20;37.90
70079;DHT22;57451;52.496;13.456;2022-08-14T11:17:33;32.30;39.20
70079;DHT22;57451;52.496;13.456;2022-08-14T11:20:04;32.40;38.00
70079;DHT22;57451;52.496;13.456;2022-08-14T11:22:31;32.40;38.90
70079;DHT22;57451;52.496;13.456;2022-08-14T11:25:03;32.50;38.30
70079;DHT22;57451;52.496;13.456;2022-08-14T11:27:31;32.50;38.20
70079;DHT22;57451;52.496;13.456;2022-08-14T11:30:00;32.50;36.70
70079;DHT22;57451;52.496;13.456;2022-08-14T11:32:29;32.50;38.10
70079;DHT22;57451;52.496;13.456;2022-08-14T11:34:56;32.60;36.90
70079;DHT22;57451;52.496;13.456;2022-08-14T11:37:22;32.50;36.50
70079;DHT22;57451;52.496;13.456;2022-08-14T11:39:49;32.60;36.90
70079;DHT22;57451;52.496;13.456;2022-08-14T11:42:21;32.70;35.90
70079;DHT22;57451;52.496;13.456;2022-08-14T11:44:49;32.70;35.70
70079;DHT22;57451;52.496;13.456;2022-08-14T11:47:16;32.70;37.20
70079;DHT22;57451;52.496;13.456;2022-08-14T11:49:45;32.80;37.00
70079;DHT22;57451;52.496;13.456;2022-08-14T11:52:13;32.90;37.10
70079;DHT22;57451;52.496;13.456;2022-08-14T11:54:39;33.00;36.00
70079;DHT22;57451;52.496;13.456;2022-08-14T11:57:12;33.10;37.40
70079;DHT22;57451;52.496;13.456;2022-08-14T11:59:40;33.20;36.50
70079;DHT22;57451;52.496;13.456;2022-08-14T12:02:12;33.30;37.10
70079;DHT22;57451;52.496;13.456;2022-08-14T12:04:48;33.50;35.60
70079;DHT22;57451;52.496;13.456;2022-08-14T12:07:15;33.70;35.90
70079;DHT22;57451;52.496;13.456;2022-08-14T12:09:44;33.90;35.60
70079;DHT22;57451;52.496;13.456;2022-08-14T12:12:14;34.10;36.30
70079;DHT22;57451;52.496;13.456;2022-08-14T12:14:49;34.30;36.00
70079;DHT22;57451;52.496;13.456;2022-08-14T12:17:17;34.60;35.40
70079;DHT22;57451;52.496;13.456;2022-08-14T12:19:47;34.80;34.20
70079;DHT22;57451;52.496;13.456;2022-08-14T12:22:14;35.20;35.90
70079;DHT22;57451;52.496;13.456;2022-08-14T12:24:41;35.60;34.90
70079;DHT22;57451;52.496;13.456;2022-08-14T12:27:09;36.10;34.40
70079;DHT22;57451;52.496;13.456;2022-08-14T12:29:38;36.40;33.90
70079;DHT22;57451;52.496;13.456;2022-08-14T12:32:08;36.90;32.80
70079;DHT22;57451;52.496;13.456;2022-08-14T12:34:34;37.30;32.40
70079;DHT22;57451;52.496;13.456;2022-08-14T12:37:03;37.60;32.60
70079;DHT22;57451;52.496;13.456;2022-08-14T12:39:30;37.70;30.70
70079;DHT22;57451;52.496;13.456;2022-08-14T12:41:59;37.80;30.90
70079;DHT22;57451;52.496;13.456;2022-08-14T12:44:33;37.70;31.10
70079;DHT22;57451;52.496;13.456;2022-08-14T12:47:05;37.60;32.20
70079;DHT22;57451;52.496;13.456;2022-08-14T12:49:32;37.50;30.10
70079;DHT22;57451;52.496;13.456;2022-08-14T12:52:00;37.30;30.50
70079;DHT22;57451;52.496;13.456;2022-08-14T12:54:27;37.20;31.30
70079;DHT22;57451;52.496;13.456;2022-08-14T12:57:03;37.10;30.80
70079;DHT22;57451;52.496;13.456;2022-08-14T12:59:30;36.90;31.90
70079;DHT22;57451;52.496;13.456;2022-08-14T13:01:58;36.80;31.30
70079;DHT22;57451;52.496;13.456;2022-08-14T13:04:24;36.90;31.60
70079;DHT22;57451;52.496;13.456;2022-08-14T13:07:01;36.80;31.30
70079;DHT22;57451;52.496;13.456;2022-08-14T13:09:34;36.60;30.90
70079;DHT22;57451;52.496;13.456;2022-08-14T13:12:01;36.60;31.60
70079;DHT22;57451;52.496;13.456;2022-08-14T13:14:29;36.60;31.60
70079;DHT22;57451;52.496;13.456;2022-08-14T13:16:57;36.60;31.20
70079;DHT22;57451;52.496;13.456;2022-08-14T13:19:25;36.60;31.50
70079;DHT22;57451;52.496;13.456;2022-08-14T13:21:53;36.60;31.60
70079;DHT22;57451;52.496;13.456;2022-08-14T13:24:24;36.70;31.40
70079;DHT22;57451;52.496;13.456;2022-08-14T13:26:52;36.70;31.20
70079;DHT22;57451;52.496;13.456;2022-08-14T13:29:22;36.70;31.00
70079;DHT22;57451;52.496;13.456;2022-08-14T13:31:50;36.70;31.40
70079;DHT22;57451;52.496;13.456;2022-08-14T13:34:19;36.90;30.60
70079;DHT22;57451;52.496;13.456;2022-08-14T13:36:46;37.00;30.20
70079;DHT22;57451;52.496;13.456;2022-08-14T13:39:14;37.10;29.50
70079;DHT22;57451;52.496;13.456;2022-08-14T13:41:42;37.20;29.40
70079;DHT22;57451;52.496;13.456;2022-08-14T13:44:09;37.20;29.10
70079;DHT22;57451;52.496;13.456;2022-08-14T13:46:36;37.20;29.70
70079;DHT22;57451;52.496;13.456;2022-08-14T13:49:02;37.20;29.80
70079;DHT22;57451;52.496;13.456;2022-08-14T13:51:33;37.40;29.60
70079;DHT22;57451;52.496;13.456;2022-08-14T13:54:01;37.50;29.70
70079;DHT22;57451;52.496;13.456;2022-08-14T13:56:28;37.60;28.80
70079;DHT22;57451;52.496;13.456;2022-08-14T13:58:57;37.60;29.10
70079;DHT22;57451;52.496;13.456;2022-08-14T14:01:26;37.80;28.40
70079;DHT22;57451;52.496;13.456;2022-08-14T14:03:54;37.90;28.10
70079;DHT22;57451;52.496;13.456;2022-08-14T14:06:23;38.00;28.60
70079;DHT22;57451;52.496;13.456;2022-08-14T14:08:53;38.10;28.20
70079;DHT22;57451;52.496;13.456;2022-08-14T14:11:19;38.30;27.90
70079;DHT22;57451;52.496;13.456;2022-08-14T14:13:50;38.50;27.70
70079;DHT22;57451;52.496;13.456;2022-08-14T14:16:18;38.80;26.20
70079;DHT22;57451;52.496;13.456;2022-08-14T14:18:47;38.90;25.50
70079;DHT22;57451;52.496;13.456;2022-08-14T14:21:16;38.80;25.90
70079;DHT22;57451;52.496;13.456;2022-08-14T14:23:43;38.80;26.30
70079;DHT22;57451;52.496;13.456;2022-08-14T14:26:11;39.00;26.90
70079;DHT22;57451;52.496;13.456;2022-08-14T14:28:38;39.20;26.90
70079;DHT22;57451;52.496;13.456;2022-08-14T14:31:07;39.50;25.00
70079;DHT22;57451;52.496;13.456;2022-08-14T14:33:35;39.60;24.40
70079;DHT22;57451;52.496;13.456;2022-08-14T14:36:02;39.60;24.80
70079;DHT22;57451;52.496;13.456;2022-08-14T14:38:29;39.70;24.40
70079;DHT22;57451;52.496;13.456;2022-08-14T14:40:58;39.70;25.20
70079;DHT22;57451;52.496;13.456;2022-08-14T14:43:26;39.80;25.20
70079;DHT22;57451;52.496;13.456;2022-08-14T14:45:53;39.90;24.30
70079;DHT22;57451;52.496;13.456;2022-08-14T14:48:21;40.10;25.90
70079;DHT22;57451;52.496;13.456;2022-08-14T14:50:50;40.20;26.00
70079;DHT22;57451;52.496;13.456;2022-08-14T14:53:18;40.40;25.50
70079;DHT22;57451;52.496;13.456;2022-08-14T14:55:45;40.30;24.30
70079;DHT22;57451;52.496;13.456;2022-08-14T14:58:12;40.30;26.10
70079;DHT22;57451;52.496;13.456;2022-08-14T15:00:41;40.40;24.10
70079;DHT22;57451;52.496;13.456;2022-08-14T15:03:08;40.30;24.30
70079;DHT22;57451;52.496;13.456;2022-08-14T15:05:35;40.20;24.30
70079;DHT22;57451;52.496;13.456;2022-08-14T15:08:04;40.20;25.40
70079;DHT22;57451;52.496;13.456;2022-08-14T15:10:30;40.30;25.10
70079;DHT22;57451;52.496;13.456;2022-08-14T15:12:57;40.30;25.00
70079;DHT22;57451;52.496;13.456;2022-08-14T15:15:24;40.30;24.10
70079;DHT22;57451;52.496;13.456;2022-08-14T15:17:50;40.30;25.40
70079;DHT22;57451;52.496;13.456;2022-08-14T15:20:16;40.30;24.60
70079;DHT22;57451;52.496;13.456;2022-08-14T15:22:43;40.20;25.20
70079;DHT22;57451;52.496;13.456;2022-08-14T15:25:12;40.10;24.10
70079;DHT22;57451;52.496;13.456;2022-08-14T15:27:40;39.90;25.20